sensor_id;sensor_type;location;lat;lon;timestamp;temperature;humidity
8953;DHT22;4511;50.890;8.054;2023-12-04T00:00:01;-0.30;99.90
8953;DHT22;4511;50.890;8.054;2023-12-04T00:02:28;-0.30;99.80
8953;DHT22;4511;50.890;8.054;2023-12-04T00:04:54;-0.30;1.00
8953;DHT22;4511;50.890;8.054;2023-12-04T00:07:21;-0.20;1.00
8953;DHT22;4511;50.890;8.054;2023-12-04T00:09:48;-0.30;1.00
8953;DHT22;4511;50.890;8.054;2023-12-04T00:12:15;-0.30;1.00
8953;DHT22;4511;50.890;8.054;2023-12-04T00:14:43;-0.40;1.00
8953;DHT22;4511;50.890;8.054;2023-12-04T00:17:09;-0.30;1.00
8953;DHT22;4511;50.890;8.054;2023-12-04T00:19:36;-0.30;1.00
8953;DHT22;4511;50.890;8.054;2023-12-04T00:22:04;-0.30;1.00
8953;DHT22;4511;50.890;8.054;2023-12-04T00:24:31;-0.30;1.00
8953;DHT22;4511;50.890;8.054;2023-12-04T00:26:58;-0.30;1.00
8953;DHT22;4511;50.890;8.054;2023-12-04T00:29:24;-0.30;1.00
8953;DHT22;4511;50.890;8.054;2023-12-04T00:31:53;-0.20;1.00
8953;DHT22;4511;50.890;8.054;2023-12-04T00:34:19;-0.30;1.00
8953;DHT22;4511;50.890;8.054;2023-12-04T00:36:46;-0.20;1.00
8953;DHT22;4511;50.890;8.054;2023-12-04T00:39:13;-0.20;1.00
8953;DHT22;4511;50.890;8.054;2023-12-04T00:41:39;-0.20;1.00
8953;DHT22;4511;50.890;8.054;2023-12-04T00:44:06;-0.20;1.00
8953;DHT22;4511;50.890;8.054;2023-12-04T00:46:33;-0.20;1.00
8953;DHT22;4511;50.890;8.054;2023-12-04T00:49:01;-0.20;1.00
8953;DHT22;4511;50.890;8.054;2023-12-04T00:51:28;-0.10;1.00
8953;DHT22;4511;50.890;8.054;2023-12-04T00:53:54;-0.20;1.00
8953;DHT22;4511;50.890;8.054;2023-12-04T00:56:21;-0.20;1.00
8953;DHT22;4511;50.890;8.054;2023-12-04T00:58:48;-0.30;1.00
8953;DHT22;4511;50.890;8.054;2023-12-04T01:01:15;-0.30;1.00
8953;DHT22;4511;50.890;8.054;2023-12-04T01:03:42;-0.30;1.00
8953;DHT22;4511;50.890;8.054;2023-12-04T01:06:20;-0.30;1.00
8953;DHT22;4511;50.890;8.054;2023-12-04T01:08:47;-0.30;1.00
8953;DHT22;4511;50.890;8.054;2023-12-04T01:11:14;-0.30;1.00
8953;DHT22;4511;50.890;8.054;2023-12-04T01:13:41;-0.30;1.00
8953;DHT22;4511;50.890;8.054;2023-12-04T01:16:08;-0.30;1.00
8953;DHT22;4511;50.890;8.054;2023-12-04T01:18:35;-0.30;1.00
8953;DHT22;4511;50.890;8.054;2023-12-04T01:21:02;-0.30;1.00
8953;DHT22;4511;50.890;8.054;2023-12-04T01:23:30;-0.20;1.00
8953;DHT22;4511;50.890;8.054;2023-12-04T01:25:57;-0.20;1.00
8953;DHT22;4511;50.890;8.054;2023-12-04T01:28:24;-0.30;1.00
8953;DHT22;4511;50.890;8.054;2023-12-04T01:30:50;-0.30;1.00
8953;DHT22;4511;50.890;8.054;2023-12-04T01:33:17;-0.30;1.00
8953;DHT22;4511;50.890;8.054;2023-12-04T01:35:44;-0.30;1.00
8953;DHT22;4511;50.890;8.054;2023-12-04T01:38:11;-0.40;1.00
8953;DHT22;4511;50.890;8.054;2023-12-04T01:40:39;-0.30;1.00
8953;DHT22;4511;50.890;8.054;2023-12-04T01:43:05;-0.30;1.00
8953;DHT22;4511;50.890;8.054;2023-12-04T01:45:32;-0.30;1.00
8953;DHT22;4511;50.890;8.054;2023-12-04T01:47:59;-0.30;1.00
8953;DHT22;4511;50.890;8.054;2023-12-04T01:50:26;-0.20;1.00
8953;DHT22;4511;50.890;8.054;2023-12-04T01:52:53;-0.20;1.00
8953;DHT22;4511;50.890;8.054;2023-12-04T01:55:20;-0.20;1.00
8953;DHT22;4511;50.890;8.054;2023-12-04T01:57:49;-0.10;1.00
8953;DHT22;4511;50.890;8.054;2023-12-04T02:00:17;-0.10;1.00
8953;DHT22;4511;50.890;8.054;2023-12-04T02:02:46;-0.20;1.00
8953;DHT22;4511;50.890;8.054;2023-12-04T02:05:14;-0.20;1.00
8953;DHT22;4511;50.890;8.054;2023-12-04T02:07:41;-0.20;1.00
8953;DHT22;4511;50.890;8.054;2023-12-04T02:10:09;-0.20;1.00
8953;DHT22;4511;50.890;8.054;2023-12-04T02:12:36;-0.20;1.00
8953;DHT22;4511;50.890;8.054;2023-12-04T02:15:05;-0.10;1.00
8953;DHT22;4511;50.890;8.054;2023-12-04T02:17:32;-0.10;1.00
8953;DHT22;4511;50.890;8.054;2023-12-04T02:19:59;-0.20;1.00
8953;DHT22;4511;50.890;8.054;2023-12-04T02:22:26;-0.20;1.00
8953;DHT22;4511;50.890;8.054;2023-12-04T02:24:54;-0.20;1.00
8953;DHT22;4511;50.890;8.054;2023-12-04T02:27:27;-0.30;1.00
8953;DHT22;4511;50.890;8.054;2023-12-04T02:29:57;-0.20;1.00
8953;DHT22;4511;50.890;8.054;2023-12-04T02:32:28;-0.30;1.00
8953;DHT22;4511;50.890;8.054;2023-12-04T02:34:55;-0.30;1.00
8953;DHT22;4511;50.890;8.054;2023-12-04T02:37:23;-0.20;1.00
8953;DHT22;4511;50.890;8.054;2023-12-04T02:39:50;-0.20;1.00
8953;DHT22;4511;50.890;8.054;2023-12-04T02:42:19;-0.10;1.00
8953;DHT22;4511;50.890;8.054;2023-12-04T02:44:46;-0.30;99.90
8953;DHT22;4511;50.890;8.054;2023-12-04T02:47:13;-0.30;1.00
8953;DHT22;4511;50.890;8.054;2023-12-04T02:49:40;-0.30;99.90
8953;DHT22;4511;50.890;8.054;2023-12-04T02:52:06;-0.30;1.00
8953;DHT22;4511;50.890;8.054;2023-12-04T02:54:33;-0.20;1.00
8953;DHT22;4511;50.890;8.054;2023-12-04T02:57:00;-0.20;1.00
8953;DHT22;4511;50.890;8.054;2023-12-04T02:59:28;-0.20;1.00
8953;DHT22;4511;50.890;8.054;2023-12-04T03:01:55;-0.20;1.00
8953;DHT22;4511;50.890;8.054;2023-12-04T03:04:21;-0.10;1.00
8953;DHT22;4511;50.890;8.054;2023-12-04T03:06:48;-0.10;99.90
8953;DHT22;4511;50.890;8.054;2023-12-04T03:09:16;-0.20;99.90
8953;DHT22;4511;50.890;8.054;2023-12-04T03:11:43;-0.20;1.00
8953;DHT22;4511;50.890;8.054;2023-12-04T03:14:10;-0.20;1.00
8953;DHT22;4511;50.890;8.054;2023-12-04T03:16:38;-0.20;1.00
8953;DHT22;4511;50.890;8.054;2023-12-04T03:19:04;-0.30;1.00
8953;DHT22;4511;50.890;8.054;2023-12-04T03:21:31;-0.30;1.00
8953;DHT22;4511;50.890;8.054;2023-12-04T03:23:58;-0.20;1.00
8953;DHT22;4511;50.890;8.054;2023-12-04T03:26:25;-0.20;99.90
8953;DHT22;4511;50.890;8.054;2023-12-04T03:28:52;-0.20;99.90
8953;DHT22;4511;50.890;8.054;2023-12-04T03:31:19;-0.30;1.00
8953;DHT22;4511;50.890;8.054;2023-12-04T03:33:47;-0.30;99.90
8953;DHT22;4511;50.890;8.054;2023-12-04T03:36:13;-0.30;99.90
8953;DHT22;4511;50.890;8.054;2023-12-04T03:38:40;-0.30;99.90
8953;DHT22;4511;50.890;8.054;2023-12-04T03:41:13;-0.30;1.00
8953;DHT22;4511;50.890;8.054;2023-12-04T03:43:40;-0.30;1.00
8953;DHT22;4511;50.890;8.054;2023-12-04T03:46:07;-0.20;99.90
8953;DHT22;4511;50.890;8.054;2023-12-04T03:48:34;-0.40;99.90
8953;DHT22;4511;50.890;8.054;2023-12-04T03:51:02;-0.40;99.90
8953;DHT22;4511;50.890;8.054;2023-12-04T03:53:29;-0.30;1.00
8953;DHT22;4511;50.890;8.054;2023-12-04T03:55:58;-0.40;1.00
8953;DHT22;4511;50.890;8.054;2023-12-04T03:58:24;-0.40;1.00
8953;DHT22;4511;50.890;8.054;2023-12-04T04:00:51;-0.50;99.90
8953;DHT22;4511;50.890;8.054;2023-12-04T04:03:18;-0.40;1.00
8953;DHT22;4511;50.890;8.054;2023-12-04T04:05:45;-0.50;1.00
8953;DHT22;4511;50.890;8.054;2023-12-04T04:08:13;-0.40;1.00
8953;DHT22;4511;50.890;8.054;2023-12-04T04:10:39;-0.40;1.00
8953;DHT22;4511;50.890;8.054;2023-12-04T04:13:06;-0.40;1.00
8953;DHT22;4511;50.890;8.054;2023-12-04T04:15:33;-0.40;1.00
8953;DHT22;4511;50.890;8.054;2023-12-04T04:18:00;-0.40;1.00
8953;DHT22;4511;50.890;8.054;2023-12-04T04:20:26;-0.40;1.00
8953;DHT22;4511;50.890;8.054;2023-12-04T04:22:53;-0.50;1.00
8953;DHT22;4511;50.890;8.054;2023-12-04T04:25:21;-0.40;1.00
8953;DHT22;4511;50.890;8.054;2023-12-04T04:27:49;-0.50;1.00
8953;DHT22;4511;50.890;8.054;2023-12-04T04:30:16;-0.50;1.00
8953;DHT22;4511;50.890;8.054;2023-12-04T04:32:43;-0.60;1.00
8953;DHT22;4511;50.890;8.054;2023-12-04T04:35:09;-0.60;1.00
8953;DHT22;4511;50.890;8.054;2023-12-04T04:37:36;-0.50;1.00
8953;DHT22;4511;50.890;8.054;2023-12-04T04:40:04;-0.50;1.00
8953;DHT22;4511;50.890;8.054;2023-12-04T04:42:32;-0.40;1.00
8953;DHT22;4511;50.890;8.054;2023-12-04T04:44:59;-0.40;1.00
8953;DHT22;4511;50.890;8.054;2023-12-04T04:47:25;-0.40;1.00
8953;DHT22;4511;50.890;8.054;2023-12-04T04:49:52;-0.50;1.00
8953;DHT22;4511;50.890;8.054;2023-12-04T04:52:19;-0.40;99.90
8953;DHT22;4511;50.890;8.054;2023-12-04T04:54:45;-0.50;99.90
8953;DHT22;4511;50.890;8.054;2023-12-04T04:57:12;-0.50;99.90
8953;DHT22;4511;50.890;8.054;2023-12-04T04:59:40;-0.50;99.90
8953;DHT22;4511;50.890;8.054;2023-12-04T05:02:07;-0.60;99.90
8953;DHT22;4511;50.890;8.054;2023-12-04T05:04:33;-0.60;1.00
8953;DHT22;4511;50.890;8.054;2023-12-04T05:07:00;-0.50;1.00
8953;DHT22;4511;50.890;8.054;2023-12-04T05:09:27;-0.50;99.90
8953;DHT22;4511;50.890;8.054;2023-12-04T05:11:54;-0.50;99.90
8953;DHT22;4511;50.890;8.054;2023-12-04T05:14:20;-0.50;99.90
8953;DHT22;4511;50.890;8.054;2023-12-04T05:16:48;-0.50;99.90
8953;DHT22;4511;50.890;8.054;2023-12-04T05:19:15;-0.60;99.90
8953;DHT22;4511;50.890;8.054;2023-12-04T05:21:42;-0.60;99.90
8953;DHT22;4511;50.890;8.054;2023-12-04T05:24:08;-0.60;99.90
8953;DHT22;4511;50.890;8.054;2023-12-04T05:26:35;-0.60;99.90
8953;DHT22;4511;50.890;8.054;2023-12-04T05:29:02;-0.60;99.90
8953;DHT22;4511;50.890;8.054;2023-12-04T05:31:29;-0.70;99.90
8953;DHT22;4511;50.890;8.054;2023-12-04T05:33:57;-0.60;99.90
8953;DHT22;4511;50.890;8.054;2023-12-04T05:36:23;-0.70;99.90
8953;DHT22;4511;50.890;8.054;2023-12-04T05:38:50;-0.80;99.90
8953;DHT22;4511;50.890;8.054;2023-12-04T05:41:19;-0.70;99.90
8953;DHT22;4511;50.890;8.054;2023-12-04T05:43:45;-0.70;99.90
8953;DHT22;4511;50.890;8.054;2023-12-04T05:46:12;-0.70;99.90
8953;DHT22;4511;50.890;8.054;2023-12-04T05:48:39;-0.70;99.90
8953;DHT22;4511;50.890;8.054;2023-12-04T05:51:08;-0.80;99.90
8953;DHT22;4511;50.890;8.054;2023-12-04T05:53:36;-0.80;99.90
8953;DHT22;4511;50.890;8.054;2023-12-04T05:56:05;-0.80;99.90
8953;DHT22;4511;50.890;8.054;2023-12-04T05:58:32;-0.70;99.90
8953;DHT22;4511;50.890;8.054;2023-12-04T06:00:59;-0.80;99.90
8953;DHT22;4511;50.890;8.054;2023-12-04T06:03:26;-0.80;99.90
8953;DHT22;4511;50.890;8.054;2023-12-04T06:05:53;-0.80;99.90
8953;DHT22;4511;50.890;8.054;2023-12-04T06:08:21;-0.20;99.90
8953;DHT22;4511;50.890;8.054;2023-12-04T06:10:48;-0.30;99.90
8953;DHT22;4511;50.890;8.054;2023-12-04T06:13:14;-0.40;99.90
8953;DHT22;4511;50.890;8.054;2023-12-04T06:15:41;-0.50;99.90
8953;DHT22;4511;50.890;8.054;2023-12-04T06:18:08;-0.70;99.90
8953;DHT22;4511;50.890;8.054;2023-12-04T06:20:34;-0.70;99.90
8953;DHT22;4511;50.890;8.054;2023-12-04T06:23:02;-0.60;99.90
8953;DHT22;4511;50.890;8.054;2023-12-04T06:25:30;-0.70;99.90
8953;DHT22;4511;50.890;8.054;2023-12-04T06:27:58;-0.80;99.90
8953;DHT22;4511;50.890;8.054;2023-12-04T06:30:25;-0.90;99.90
8953;DHT22;4511;50.890;8.054;2023-12-04T06:32:52;-0.80;99.90
8953;DHT22;4511;50.890;8.054;2023-12-04T06:35:20;-0.70;99.90
8953;DHT22;4511;50.890;8.054;2023-12-04T06:37:48;-0.70;99.90
8953;DHT22;4511;50.890;8.054;2023-12-04T06:40:16;-0.70;99.90
8953;DHT22;4511;50.890;8.054;2023-12-04T06:42:45;-0.70;99.90
8953;DHT22;4511;50.890;8.054;2023-12-04T06:45:12;-0.70;99.90
8953;DHT22;4511;50.890;8.054;2023-12-04T06:47:40;-0.70;99.90
8953;DHT22;4511;50.890;8.054;2023-12-04T06:50:07;-0.80;99.90
8953;DHT22;4511;50.890;8.054;2023-12-04T06:52:34;-0.80;99.90
8953;DHT22;4511;50.890;8.054;2023-12-04T06:55:01;-0.80;99.90
8953;DHT22;4511;50.890;8.054;2023-12-04T06:57:28;-0.80;99.90
8953;DHT22;4511;50.890;8.054;2023-12-04T06:59:56;-0.80;99.90
8953;DHT22;4511;50.890;8.054;2023-12-04T07:02:22;-0.80;99.90
8953;DHT22;4511;50.890;8.054;2023-12-04T07:04:49;-0.80;99.90
8953;DHT22;4511;50.890;8.054;2023-12-04T07:07:16;-0.90;99.90
8953;DHT22;4511;50.890;8.054;2023-12-04T07:09:43;-0.90;99.90
8953;DHT22;4511;50.890;8.054;2023-12-04T07:12:09;-0.90;99.90
8953;DHT22;4511;50.890;8.054;2023-12-04T07:14:36;-0.80;99.90
8953;DHT22;4511;50.890;8.054;2023-12-04T07:17:04;-0.80;99.90
8953;DHT22;4511;50.890;8.054;2023-12-04T07:19:31;-0.80;99.90
8953;DHT22;4511;50.890;8.054;2023-12-04T07:21:58;-0.80;99.90
8953;DHT22;4511;50.890;8.054;2023-12-04T07:24:25;-0.90;99.90
8953;DHT22;4511;50.890;8.054;2023-12-04T07:26:52;-0.80;99.90
8953;DHT22;4511;50.890;8.054;2023-12-04T07:29:18;-0.90;99.90
8953;DHT22;4511;50.890;8.054;2023-12-04T07:31:45;-0.90;99.90
8953;DHT22;4511;50.890;8.054;2023-12-04T07:34:13;-0.90;99.90
8953;DHT22;4511;50.890;8.054;2023-12-04T07:36:40;-0.90;99.90
8953;DHT22;4511;50.890;8.054;2023-12-04T07:39:07;-0.80;99.90
8953;DHT22;4511;50.890;8.054;2023-12-04T07:41:34;-0.80;99.90
8953;DHT22;4511;50.890;8.054;2023-12-04T07:44:01;-0.70;99.90
8953;DHT22;4511;50.890;8.054;2023-12-04T07:46:28;-0.70;99.90
8953;DHT22;4511;50.890;8.054;2023-12-04T07:48:55;-0.70;99.90
8953;DHT22;4511;50.890;8.054;2023-12-04T07:51:23;-0.90;99.90
8953;DHT22;4511;50.890;8.054;2023-12-04T07:53:50;-0.80;99.90
8953;DHT22;4511;50.890;8.054;2023-12-04T07:56:17;-0.70;99.90
8953;DHT22;4511;50.890;8.054;2023-12-04T07:58:43;-0.60;99.90
8953;DHT22;4511;50.890;8.054;2023-12-04T08:01:10;-0.50;99.90
8953;DHT22;4511;50.890;8.054;2023-12-04T08:03:37;-0.50;99.90
8953;DHT22;4511;50.890;8.054;2023-12-04T08:06:04;-0.50;99.90
8953;DHT22;4511;50.890;8.054;2023-12-04T08:08:32;-0.40;99.90
8953;DHT22;4511;50.890;8.054;2023-12-04T08:10:59;-0.30;99.90
8953;DHT22;4511;50.890;8.054;2023-12-04T08:13:26;-0.30;99.90
8953;DHT22;4511;50.890;8.054;2023-12-04T08:15:53;-0.40;99.90
8953;DHT22;4511;50.890;8.054;2023-12-04T08:18:20;-0.30;99.90
8953;DHT22;4511;50.890;8.054;2023-12-04T08:20:46;-0.30;99.90
8953;DHT22;4511;50.890;8.054;2023-12-04T08:23:13;-0.20;99.90
8953;DHT22;4511;50.890;8.054;2023-12-04T08:25:42;-0.20;99.90
8953;DHT22;4511;50.890;8.054;2023-12-04T08:28:08;-0.20;99.90
8953;DHT22;4511;50.890;8.054;2023-12-04T08:30:35;-0.30;99.90
8953;DHT22;4511;50.890;8.054;2023-12-04T08:33:02;-0.20;99.90
8953;DHT22;4511;50.890;8.054;2023-12-04T08:35:29;-0.10;99.90
8953;DHT22;4511;50.890;8.054;2023-12-04T08:37:55;-0.10;99.90
8953;DHT22;4511;50.890;8.054;2023-12-04T08:40:22;0.00;99.90
8953;DHT22;4511;50.890;8.054;2023-12-04T08:42:50;0.00;99.90
8953;DHT22;4511;50.890;8.054;2023-12-04T08:45:17;0.00;99.90
8953;DHT22;4511;50.890;8.054;2023-12-04T08:47:44;0.00;99.90
8953;DHT22;4511;50.890;8.054;2023-12-04T08:50:11;0.00;99.90
8953;DHT22;4511;50.890;8.054;2023-12-04T08:52:38;-0.10;99.90
8953;DHT22;4511;50.890;8.054;2023-12-04T08:55:07;-0.10;99.90
8953;DHT22;4511;50.890;8.054;2023-12-04T08:57:34;0.00;99.90
8953;DHT22;4511;50.890;8.054;2023-12-04T09:00:02;0.10;99.90
8953;DHT22;4511;50.890;8.054;2023-12-04T09:02:30;0.10;99.90
8953;DHT22;4511;50.890;8.054;2023-12-04T09:04:57;0.20;99.90
8953;DHT22;4511;50.890;8.054;2023-12-04T09:07:24;0.30;99.90
8953;DHT22;4511;50.890;8.054;2023-12-04T09:09:51;0.20;99.90
8953;DHT22;4511;50.890;8.054;2023-12-04T09:12:18;0.10;99.90
8953;DHT22;4511;50.890;8.054;2023-12-04T09:14:44;0.20;99.90
8953;DHT22;4511;50.890;8.054;2023-12-04T09:17:13;0.10;99.90
8953;DHT22;4511;50.890;8.054;2023-12-04T09:19:40;0.00;99.90
8953;DHT22;4511;50.890;8.054;2023-12-04T09:22:06;0.00;99.90
8953;DHT22;4511;50.890;8.054;2023-12-04T09:24:33;0.00;99.90
8953;DHT22;4511;50.890;8.054;2023-12-04T09:27:00;0.20;99.90
8953;DHT22;4511;50.890;8.054;2023-12-04T09:29:27;0.20;99.90
8953;DHT22;4511;50.890;8.054;2023-12-04T09:31:54;0.20;99.90
8953;DHT22;4511;50.890;8.054;2023-12-04T09:34:22;0.30;99.90
8953;DHT22;4511;50.890;8.054;2023-12-04T09:36:49;0.30;99.90
8953;DHT22;4511;50.890;8.054;2023-12-04T09:39:15;0.20;99.90
8953;DHT22;4511;50.890;8.054;2023-12-04T09:41:43;0.30;99.90
8953;DHT22;4511;50.890;8.054;2023-12-04T09:44:10;0.30;99.90
8953;DHT22;4511;50.890;8.054;2023-12-04T09:46:38;0.30;99.90
8953;DHT22;4511;50.890;8.054;2023-12-04T09:49:05;0.40;99.90
8953;DHT22;4511;50.890;8.054;2023-12-04T09:51:34;0.40;99.90
8953;DHT22;4511;50.890;8.054;2023-12-04T09:54:02;0.40;99.90
8953;DHT22;4511;50.890;8.054;2023-12-04T09:56:30;0.50;99.90
8953;DHT22;4511;50.890;8.054;2023-12-04T09:58:59;0.60;99.90
8953;DHT22;4511;50.890;8.054;2023-12-04T10:01:28;0.60;99.90
8953;DHT22;4511;50.890;8.054;2023-12-04T10:03:56;0.70;99.90
8953;DHT22;4511;50.890;8.054;2023-12-04T10:06:26;0.60;99.90
8953;DHT22;4511;50.890;8.054;2023-12-04T10:08:55;0.60;99.90
8953;DHT22;4511;50.890;8.054;2023-12-04T10:11:23;0.70;99.90
8953;DHT22;4511;50.890;8.054;2023-12-04T10:13:52;0.60;99.90
8953;DHT22;4511;50.890;8.054;2023-12-04T10:16:32;0.50;99.90
8953;DHT22;4511;50.890;8.054;2023-12-04T10:19:14;0.70;99.90
8953;DHT22;4511;50.890;8.054;2023-12-04T10:21:42;0.70;99.90
8953;DHT22;4511;50.890;8.054;2023-12-04T10:24:10;0.70;99.90
8953;DHT22;4511;50.890;8.054;2023-12-04T10:26:37;0.70;99.90
8953;DHT22;4511;50.890;8.054;2023-12-04T10:29:04;0.80;99.90
8953;DHT22;4511;50.890;8.054;2023-12-04T10:31:34;0.80;99.90
8953;DHT22;4511;50.890;8.054;2023-12-04T10:34:01;0.90;99.90
8953;DHT22;4511;50.890;8.054;2023-12-04T10:36:30;0.80;99.90
8953;DHT22;4511;50.890;8.054;2023-12-04T10:39:00;0.90;99.90
8953;DHT22;4511;50.890;8.054;2023-12-04T10:41:31;0.90;99.90
8953;DHT22;4511;50.890;8.054;2023-12-04T10:43:58;1.10;99.90
8953;DHT22;4511;50.890;8.054;2023-12-04T10:46:27;1.10;99.90
8953;DHT22;4511;50.890;8.054;2023-12-04T10:48:56;1.10;99.90
8953;DHT22;4511;50.890;8.054;2023-12-04T10:51:23;1.20;99.90
8953;DHT22;4511;50.890;8.054;2023-12-04T10:53:52;1.20;99.90
8953;DHT22;4511;50.890;8.054;2023-12-04T10:56:23;1.30;99.90
8953;DHT22;4511;50.890;8.054;2023-12-04T10:58:53;1.40;99.90
8953;DHT22;4511;50.890;8.054;2023-12-04T11:01:22;1.60;99.90
8953;DHT22;4511;50.890;8.054;2023-12-04T11:03:52;1.70;99.90
8953;DHT22;4511;50.890;8.054;2023-12-04T11:06:21;1.70;99.90
8953;DHT22;4511;50.890;8.054;2023-12-04T11:08:49;1.80;99.90
8953;DHT22;4511;50.890;8.054;2023-12-04T11:11:23;1.70;99.90
8953;DHT22;4511;50.890;8.054;2023-12-04T11:13:55;1.80;99.90
8953;DHT22;4511;50.890;8.054;2023-12-04T11:16:34;1.70;99.90
8953;DHT22;4511;50.890;8.054;2023-12-04T11:19:06;1.60;99.90
8953;DHT22;4511;50.890;8.054;2023-12-04T11:21:39;1.50;99.90
8953;DHT22;4511;50.890;8.054;2023-12-04T11:24:06;1.60;99.90
8953;DHT22;4511;50.890;8.054;2023-12-04T11:26:34;1.50;99.90
8953;DHT22;4511;50.890;8.054;2023-12-04T11:29:03;1.50;99.90
8953;DHT22;4511;50.890;8.054;2023-12-04T11:31:31;1.50;99.90
8953;DHT22;4511;50.890;8.054;2023-12-04T11:34:01;1.50;99.90
8953;DHT22;4511;50.890;8.054;2023-12-04T11:36:29;1.30;99.90
8953;DHT22;4511;50.890;8.054;2023-12-04T11:38:56;1.30;99.90
8953;DHT22;4511;50.890;8.054;2023-12-04T11:41:23;1.40;99.90
8953;DHT22;4511;50.890;8.054;2023-12-04T11:43:51;1.50;99.90
8953;DHT22;4511;50.890;8.054;2023-12-04T11:46:21;1.40;99.90
8953;DHT22;4511;50.890;8.054;2023-12-04T11:48:49;1.60;99.90
8953;DHT22;4511;50.890;8.054;2023-12-04T11:51:45;1.70;99.90
8953;DHT22;4511;50.890;8.054;2023-12-04T11:54:15;1.60;99.90
8953;DHT22;4511;50.890;8.054;2023-12-04T11:56:56;1.60;99.90
8953;DHT22;4511;50.890;8.054;2023-12-04T11:59:24;1.70;99.90
8953;DHT22;4511;50.890;8.054;2023-12-04T12:01:54;1.60;99.90
8953;DHT22;4511;50.890;8.054;2023-12-04T12:04:21;1.70;99.90
8953;DHT22;4511;50.890;8.054;2023-12-04T12:06:48;1.50;99.90
8953;DHT22;4511;50.890;8.054;2023-12-04T12:09:16;1.50;99.90
8953;DHT22;4511;50.890;8.054;2023-12-04T12:11:42;1.50;99.90
8953;DHT22;4511;50.890;8.054;2023-12-04T12:14:10;1.30;99.90
8953;DHT22;4511;50.890;8.054;2023-12-04T12:16:36;1.20;99.90
8953;DHT22;4511;50.890;8.054;2023-12-04T12:19:04;1.10;99.90
8953;DHT22;4511;50.890;8.054;2023-12-04T12:21:31;1.00;99.90
8953;DHT22;4511;50.890;8.054;2023-12-04T12:23:58;0.90;99.90
8953;DHT22;4511;50.890;8.054;2023-12-04T12:26:25;0.70;99.90
8953;DHT22;4511;50.890;8.054;2023-12-04T12:28:51;0.80;99.90
8953;DHT22;4511;50.890;8.054;2023-12-04T12:31:18;0.80;99.90
8953;DHT22;4511;50.890;8.054;2023-12-04T12:33:45;0.90;99.90
8953;DHT22;4511;50.890;8.054;2023-12-04T12:36:14;0.90;99.90
8953;DHT22;4511;50.890;8.054;2023-12-04T12:38:43;0.60;99.90
8953;DHT22;4511;50.890;8.054;2023-12-04T12:41:15;0.80;99.90
8953;DHT22;4511;50.890;8.054;2023-12-04T12:43:42;0.80;99.90
8953;DHT22;4511;50.890;8.054;2023-12-04T12:46:09;0.80;99.90
8953;DHT22;4511;50.890;8.054;2023-12-04T12:48:36;0.90;99.90
8953;DHT22;4511;50.890;8.054;2023-12-04T12:51:04;0.90;99.90
8953;DHT22;4511;50.890;8.054;2023-12-04T12:53:33;0.80;99.90
8953;DHT22;4511;50.890;8.054;2023-12-04T12:56:00;0.60;99.90
8953;DHT22;4511;50.890;8.054;2023-12-04T12:58:27;0.60;99.90
8953;DHT22;4511;50.890;8.054;2023-12-04T13:00:55;0.70;99.90
8953;DHT22;4511;50.890;8.054;2023-12-04T13:03:22;0.80;99.90
8953;DHT22;4511;50.890;8.054;2023-12-04T13:05:48;0.70;99.90
8953;DHT22;4511;50.890;8.054;2023-12-04T13:08:15;0.70;99.90
8953;DHT22;4511;50.890;8.054;2023-12-04T13:10:43;0.60;99.90
8953;DHT22;4511;50.890;8.054;2023-12-04T13:13:10;0.60;99.90
8953;DHT22;4511;50.890;8.054;2023-12-04T13:15:37;0.60;99.90
8953;DHT22;4511;50.890;8.054;2023-12-04T13:18:04;0.70;99.90
8953;DHT22;4511;50.890;8.054;2023-12-04T13:20:31;0.60;99.90
8953;DHT22;4511;50.890;8.054;2023-12-04T13:22:58;0.60;99.90
8953;DHT22;4511;50.890;8.054;2023-12-04T13:25:25;0.70;99.90
8953;DHT22;4511;50.890;8.054;2023-12-04T13:27:53;0.70;99.90
8953;DHT22;4511;50.890;8.054;2023-12-04T13:30:20;0.70;99.90
8953;DHT22;4511;50.890;8.054;2023-12-04T13:32:47;0.70;99.90
8953;DHT22;4511;50.890;8.054;2023-12-04T13:35:15;0.90;99.90
8953;DHT22;4511;50.890;8.054;2023-12-04T13:37:42;0.90;99.90
8953;DHT22;4511;50.890;8.054;2023-12-04T13:40:09;1.00;99.90
8953;DHT22;4511;50.890;8.054;2023-12-04T13:42:41;0.80;99.90
8953;DHT22;4511;50.890;8.054;2023-12-04T13:45:27;0.90;99.90
8953;DHT22;4511;50.890;8.054;2023-12-04T13:47:53;0.90;99.90
8953;DHT22;4511;50.890;8.054;2023-12-04T13:50:20;0.90;99.90
8953;DHT22;4511;50.890;8.054;2023-12-04T13:52:47;0.80;99.90
8953;DHT22;4511;50.890;8.054;2023-12-04T13:55:21;0.90;99.90
8953;DHT22;4511;50.890;8.054;2023-12-04T13:58:02;1.00;99.90
8953;DHT22;4511;50.890;8.054;2023-12-04T14:00:37;0.90;99.90
8953;DHT22;4511;50.890;8.054;2023-12-04T14:03:04;0.90;99.90
8953;DHT22;4511;50.890;8.054;2023-12-04T14:05:32;0.90;99.90
8953;DHT22;4511;50.890;8.054;2023-12-04T14:07:59;0.70;99.90
8953;DHT22;4511;50.890;8.054;2023-12-04T14:10:26;0.70;99.90
8953;DHT22;4511;50.890;8.054;2023-12-04T14:12:53;0.60;99.90
8953;DHT22;4511;50.890;8.054;2023-12-04T14:15:20;0.90;99.90
8953;DHT22;4511;50.890;8.054;2023-12-04T14:17:48;1.60;99.90
8953;DHT22;4511;50.890;8.054;2023-12-04T14:20:15;2.00;99.90
8953;DHT22;4511;50.890;8.054;2023-12-04T14:22:44;1.80;99.90
8953;DHT22;4511;50.890;8.054;2023-12-04T14:25:13;1.50;99.90
8953;DHT22;4511;50.890;8.054;2023-12-04T14:27:40;1.30;99.90
8953;DHT22;4511;50.890;8.054;2023-12-04T14:30:09;1.10;99.90
8953;DHT22;4511;50.890;8.054;2023-12-04T14:32:36;0.90;99.90
8953;DHT22;4511;50.890;8.054;2023-12-04T14:35:05;0.70;99.90
8953;DHT22;4511;50.890;8.054;2023-12-04T14:37:32;0.60;99.90
8953;DHT22;4511;50.890;8.054;2023-12-04T14:40:00;0.70;99.90
8953;DHT22;4511;50.890;8.054;2023-12-04T14:42:27;0.70;99.90
8953;DHT22;4511;50.890;8.054;2023-12-04T14:44:54;0.60;99.90
8953;DHT22;4511;50.890;8.054;2023-12-04T14:47:20;0.60;99.90
8953;DHT22;4511;50.890;8.054;2023-12-04T14:49:47;0.50;99.90
8953;DHT22;4511;50.890;8.054;2023-12-04T14:52:20;0.50;99.90
8953;DHT22;4511;50.890;8.054;2023-12-04T14:54:48;0.40;99.90
8953;DHT22;4511;50.890;8.054;2023-12-04T14:57:38;0.30;99.90
8953;DHT22;4511;50.890;8.054;2023-12-04T15:00:40;0.30;99.90
8953;DHT22;4511;50.890;8.054;2023-12-04T15:03:24;0.20;99.90
8953;DHT22;4511;50.890;8.054;2023-12-04T15:06:22;0.20;99.90
8953;DHT22;4511;50.890;8.054;2023-12-04T15:09:08;0.10;99.90
8953;DHT22;4511;50.890;8.054;2023-12-04T15:11:54;0.20;99.90
8953;DHT22;4511;50.890;8.054;2023-12-04T15:14:43;0.20;99.90
8953;DHT22;4511;50.890;8.054;2023-12-04T15:17:15;0.10;99.90
8953;DHT22;4511;50.890;8.054;2023-12-04T15:19:55;0.20;99.90
8953;DHT22;4511;50.890;8.054;2023-12-04T15:22:45;0.10;99.90
8953;DHT22;4511;50.890;8.054;2023-12-04T15:25:13;0.20;99.90
8953;DHT22;4511;50.890;8.054;2023-12-04T15:27:39;0.20;99.90
8953;DHT22;4511;50.890;8.054;2023-12-04T15:30:07;0.70;99.90
8953;DHT22;4511;50.890;8.054;2023-12-04T15:32:34;0.70;99.90
8953;DHT22;4511;50.890;8.054;2023-12-04T15:35:00;0.50;99.90
8953;DHT22;4511;50.890;8.054;2023-12-04T15:37:29;0.30;99.90
8953;DHT22;4511;50.890;8.054;2023-12-04T15:39:54;0.20;99.90
8953;DHT22;4511;50.890;8.054;2023-12-04T15:42:22;0.10;99.90
8953;DHT22;4511;50.890;8.054;2023-12-04T15:44:48;0.00;99.90
8953;DHT22;4511;50.890;8.054;2023-12-04T15:47:15;0.10;99.90
8953;DHT22;4511;50.890;8.054;2023-12-04T15:49:41;0.00;99.90
8953;DHT22;4511;50.890;8.054;2023-12-04T15:52:08;-0.10;99.90
8953;DHT22;4511;50.890;8.054;2023-12-04T15:54:33;-0.10;99.90
8953;DHT22;4511;50.890;8.054;2023-12-04T15:57:00;-0.10;99.90
8953;DHT22;4511;50.890;8.054;2023-12-04T15:59:27;-0.10;99.90
8953;DHT22;4511;50.890;8.054;2023-12-04T16:01:54;-0.10;99.90
8953;DHT22;4511;50.890;8.054;2023-12-04T16:04:20;-0.10;99.90
8953;DHT22;4511;50.890;8.054;2023-12-04T16:06:46;0.00;99.90
8953;DHT22;4511;50.890;8.054;2023-12-04T16:09:14;-0.10;99.90
8953;DHT22;4511;50.890;8.054;2023-12-04T16:11:41;-0.10;99.90
8953;DHT22;4511;50.890;8.054;2023-12-04T16:14:08;0.00;99.90
8953;DHT22;4511;50.890;8.054;2023-12-04T16:16:36;0.00;99.90